This is the latest recevied weather packets stored in our database for station/object HS5SQI-2. If no packets are shown the sender has not sent any weather packets the latest 10 day(s).
| Time | Temp. | Humidity | Pressure | Rain* | Wind** | Luminosity | Snow |
|---|---|---|---|---|---|---|---|
| 1777661707 | 32.22° C | 74% | 1006 hPa | - | - | 0 W/m² | - |
| 1777661085 | 32.22° C | 74% | 1007 hPa | - | - | 0 W/m² | - |
| 1777660463 | 33.33° C | 70% | 1007 hPa | - | - | 0 W/m² | - |
| 1777659841 | 32.78° C | 72% | 1007 hPa | - | - | 0 W/m² | - |
| 1777659219 | 33.33° C | 70% | 1007 hPa | - | - | 0 W/m² | - |
| 1777658597 | 32.78° C | 71% | 1007 hPa | - | - | 0 W/m² | - |
| 1777657975 | 32.78° C | 71% | 1007 hPa | - | - | 0 W/m² | - |
| 1777657353 | 33.33° C | 71% | 1007 hPa | - | - | 0 W/m² | - |
| 1777656730 | 32.78° C | 72% | 1008 hPa | - | - | 0 W/m² | - |
| 1777656108 | 32.22° C | 74% | 1008 hPa | - | - | 0 W/m² | - |
| 1777655486 | 33.33° C | 71% | 1008 hPa | - | - | 0 W/m² | - |
| 1777654864 | 32.78° C | 71% | 1008 hPa | - | - | 0 W/m² | - |
| 1777654242 | 33.89° C | 68% | 1008 hPa | - | - | 0 W/m² | - |
| 1777653620 | 32.78° C | 70% | 1008 hPa | - | - | 0 W/m² | - |
| 1777652998 | 33.89° C | 68% | 1008 hPa | - | - | 0 W/m² | - |
| 1777652376 | 33.89° C | 68% | 1008 hPa | - | - | 0 W/m² | - |
| 1777651754 | 34.44° C | 66% | 1008 hPa | - | - | 0 W/m² | - |
| 1777651132 | 33.33° C | 69% | 1008 hPa | - | - | 0 W/m² | - |
| 1777650510 | 33.33° C | 68% | 1008 hPa | - | - | 0 W/m² | - |
| 1777649888 | 32.78° C | 69% | 1008 hPa | - | - | 0 W/m² | - |
| 1777649266 | 33.33° C | 68% | 1008 hPa | - | - | 0 W/m² | - |
| 1777648644 | 33.89° C | 66% | 1008 hPa | - | - | 0 W/m² | - |
| 1777648022 | 34.44° C | 64% | 1007 hPa | - | - | 0 W/m² | - |
| 1777647400 | 33.89° C | 64% | 1008 hPa | - | - | 0 W/m² | - |
| 1777646778 | 33.89° C | 64% | 1008 hPa | - | - | 0 W/m² | - |
* Rain since midnight (hover to see other rain measurements)
** Current wind speed in m/s (hover to see current wind gust speed)